This is the latest recevied weather packets stored in our database for station/object IW9CSJ-13. If no packets are shown the sender has not sent any weather packets the latest 10 day(s).
| Time | Temp. | Humidity | Pressure | Rain* | Wind** | Luminosity | Snow |
|---|---|---|---|---|---|---|---|
| 1777938616 | 16.11° C | 56% | 1016.8 hPa | 0 mm | - | - | - |
| 1777938315 | 16.11° C | 56% | 1016.8 hPa | 0 mm | - | - | - |
| 1777934123 | 16.11° C | 60% | 1017.4 hPa | 0 mm | - | - | - |
| 1777933236 | 16.11° C | 60% | 1017.5 hPa | 0 mm | - | - | - |
| 1777932923 | 16.11° C | 60% | 1017.5 hPa | 0 mm | - | - | - |
| 1777932618 | 16.11° C | 61% | 1017.6 hPa | 0 mm | - | - | - |
| 1777932317 | 16.11° C | 61% | 1017.6 hPa | 0 mm | - | - | - |
| 1777931724 | 16.11° C | 61% | 1017.5 hPa | 0 mm | - | - | - |
| 1777930522 | 16.11° C | 61% | 1017.6 hPa | 0 mm | - | - | - |
| 1777930221 | 16.11° C | 61% | 1017.7 hPa | 0 mm | - | - | - |
| 1777927823 | 16.11° C | 65% | 1017.6 hPa | 0 mm | - | - | - |
| 1777927226 | 16.11° C | 66% | 1017.6 hPa | 0 mm | - | - | - |
| 1777925426 | 15.56° C | 72% | 1017.8 hPa | 0 mm | - | - | - |
| 1777924818 | 15° C | 74% | 1017.9 hPa | 0 mm | - | - | - |
| 1777924515 | 15.56° C | 75% | 1017.9 hPa | 0 mm | - | - | - |
| 1777919725 | 15° C | 78% | 1017.3 hPa | 0 mm | - | - | - |
| 1777918837 | 15.56° C | 78% | 1017.2 hPa | 0 mm | - | - | - |
| 1777918543 | 15.56° C | 77% | 1017.2 hPa | 0 mm | - | - | - |
| 1777917920 | 15.56° C | 76% | 1017.2 hPa | 0 mm | - | - | - |
| 1777917626 | 15.56° C | 76% | 1017.3 hPa | 0 mm | - | - | - |
| 1777917320 | 15.56° C | 75% | 1017.1 hPa | 0 mm | - | - | - |
| 1777916418 | 16.11° C | 74% | 1017.2 hPa | 0 mm | - | - | - |
| 1777915221 | 16.67° C | 72% | 1016.8 hPa | 0 mm | - | - | - |
| 1777911966 | 16.67° C | 69% | 1016.7 hPa | 0 mm | - | - | - |
| 1777909525 | 17.22° C | 67% | 1016.9 hPa | 0 mm | - | - | - |
* Rain latest hour (hover to see other rain measurements)
** Current wind speed in m/s (hover to see current wind gust speed)